Time;durP1;ratioP1;P1;durP2;ratioP2;P2;SDS_P1;SDS_P2;PMS_P1;PMS_P2;Temp;Humidity;BMP_temperature;BMP_pressure;BME280_temperature;BME280_humidity;BME280_pressure;Samples;Min_cycle;Max_cycle;Signal;HPM_P1;HPM_P2
2023/06/24 00:00:52;;;;;;;11.07;5.57;;;;;;;;;;5075443;28;20024;-69
2023/06/24 00:03:17;;;;;;;10.57;5.30;;;;;;;;;;5093987;28;20077;-69
2023/06/24 00:05:43;;;;;;;11.43;5.30;;;;;;;;;;5083846;28;20028;-69
2023/06/24 00:08:08;;;;;;;10.35;5.85;;;;;;;;;;5073462;28;20466;-69
2023/06/24 00:10:33;;;;;;;10.73;5.70;;;;;;;;;;5073282;28;20031;-69
2023/06/24 00:13:01;;;;;;;10.88;5.10;;;;;;;;;;5073319;28;20436;-69
2023/06/24 00:15:27;;;;;;;11.43;6.28;;;;;;;;;;5075649;28;20020;-69
2023/06/24 00:17:52;;;;;;;10.93;5.47;;;;;;;;;;5066548;28;20023;-69
2023/06/24 00:20:20;;;;;;;11.70;5.20;;;;;;;;;;5054973;28;20470;-69
2023/06/24 00:22:48;;;;;;;12.60;5.53;;;;;;;;;;5074105;28;20454;-69
2023/06/24 00:25:14;;;;;;;11.18;5.45;;;;;;;;;;5072977;28;20016;-69
2023/06/24 00:27:41;;;;;;;9.90;5.57;;;;;;;;;;5093217;28;20020;-69
2023/06/24 00:30:06;;;;;;;9.18;4.93;;;;;;;;;;5074479;28;20098;-69
2023/06/24 00:32:32;;;;;;;11.48;5.07;;;;;;;;;;5062249;28;20029;-69
2023/06/24 00:34:59;;;;;;;11.50;5.65;;;;;;;;;;5072868;28;20025;-69
2023/06/24 00:37:25;;;;;;;9.93;5.47;;;;;;;;;;5073138;28;20055;-69
2023/06/24 00:39:50;;;;;;;13.63;4.95;;;;;;;;;;5057849;28;20078;-69
2023/06/24 00:42:15;;;;;;;14.55;4.82;;;;;;;;;;5072938;28;20030;-69
2023/06/24 00:44:41;;;;;;;9.63;5.35;;;;;;;;;;5072995;28;20028;-69
2023/06/24 00:47:08;;;;;;;13.98;5.63;;;;;;;;;;5055038;28;20470;-69
2023/06/24 00:49:34;;;;;;;9.52;4.85;;;;;;;;;;5073353;28;20082;-69
2023/06/24 00:52:00;;;;;;;10.73;4.97;;;;;;;;;;5093268;28;20036;-69
2023/06/24 00:54:30;;;;;;;11.18;5.32;;;;;;;;;;5092847;28;20031;-69
2023/06/24 00:56:56;;;;;;;9.15;5.40;;;;;;;;;;5093315;28;20028;-69
2023/06/24 00:59:21;;;;;;;8.43;5.35;;;;;;;;;;5074800;28;20016;-69
2023/06/24 01:01:47;;;;;;;9.85;5.35;;;;;;;;;;5093036;28;20479;-69
2023/06/24 01:04:12;;;;;;;9.23;5.20;;;;;;;;;;5093147;28;20020;-69
2023/06/24 01:06:43;;;;;;;8.57;5.38;;;;;;;;;;5092902;28;20390;-69
2023/06/24 01:09:08;;;;;;;9.00;4.65;;;;;;;;;;5073846;28;20122;-69
2023/06/24 01:11:39;;;;;;;12.65;5.22;;;;;;;;;;5068822;28;20116;-69
2023/06/24 01:14:04;;;;;;;14.77;5.22;;;;;;;;;;5092536;28;20073;-69
2023/06/24 01:16:40;;;;;;;9.35;5.60;;;;;;;;;;5074823;28;20028;-69
2023/06/24 01:19:29;;;;;;;12.35;5.88;;;;;;;;;;5074819;28;20069;-69
2023/06/24 01:22:11;;;;;;;11.13;5.60;;;;;;;;;;5074776;28;20456;-69
2023/06/24 01:25:11;;;;;;;9.80;4.70;;;;;;;;;;5075681;28;20028;-69
2023/06/24 01:27:44;;;;;;;9.38;5.28;;;;;;;;;;5074625;28;20044;-69
2023/06/24 01:30:36;;;;;;;10.70;5.00;;;;;;;;;;5092625;28;20503;-69
2023/06/24 01:33:04;;;;;;;10.38;5.10;;;;;;;;;;5092711;28;20038;-69
2023/06/24 01:35:32;;;;;;;13.27;5.28;;;;;;;;;;5074413;28;20512;-69
2023/06/24 01:38:01;;;;;;;13.38;5.13;;;;;;;;;;5074787;28;20016;-69
2023/06/24 01:40:28;;;;;;;11.35;6.35;;;;;;;;;;5092611;28;20024;-69
2023/06/24 01:42:56;;;;;;;8.68;5.78;;;;;;;;;;5077890;28;20446;-69
2023/06/24 01:45:27;;;;;;;11.23;5.63;;;;;;;;;;5078185;28;20024;-69
2023/06/24 01:48:02;;;;;;;14.70;6.80;;;;;;;;;;5096187;28;20366;-69
2023/06/24 01:50:30;;;;;;;9.57;4.88;;;;;;;;;;5077607;28;20115;-69
2023/06/24 01:52:56;;;;;;;10.82;5.30;;;;;;;;;;5077955;28;20022;-69
2023/06/24 01:55:23;;;;;;;10.73;6.05;;;;;;;;;;5077809;28;20023;-69
2023/06/24 01:57:50;;;;;;;11.20;5.00;;;;;;;;;;5077984;28;20077;-69
2023/06/24 02:00:16;;;;;;;10.13;6.22;;;;;;;;;;5078100;28;20024;-69
2023/06/24 02:02:43;;;;;;;13.70;5.65;;;;;;;;;;5096237;28;20032;-69
2023/06/24 02:05:09;;;;;;;10.75;5.63;;;;;;;;;;5077515;28;20044;-69
2023/06/24 02:07:34;;;;;;;10.15;6.13;;;;;;;;;;5077783;28;20058;-69
2023/06/24 02:10:00;;;;;;;8.93;4.85;;;;;;;;;;5095628;28;20508;-69
2023/06/24 02:12:26;;;;;;;9.80;6.30;;;;;;;;;;5086919;28;20029;-70
2023/06/24 02:14:52;;;;;;;9.63;4.78;;;;;;;;;;5095505;28;20027;-69
2023/06/24 02:17:19;;;;;;;9.43;4.97;;;;;;;;;;5077508;28;20024;-69
2023/06/24 02:19:44;;;;;;;9.95;5.50;;;;;;;;;;5095622;28;20105;-69
2023/06/24 02:22:10;;;;;;;10.32;5.40;;;;;;;;;;5095732;28;20024;-69
2023/06/24 02:24:38;;;;;;;9.60;4.95;;;;;;;;;;5077550;28;20020;-69
2023/06/24 02:27:03;;;;;;;11.52;6.18;;;;;;;;;;5070776;28;20390;-69
2023/06/24 02:29:30;;;;;;;8.50;4.88;;;;;;;;;;5057003;28;20024;-69
2023/06/24 02:31:55;;;;;;;7.30;4.68;;;;;;;;;;5057112;28;20039;-69
2023/06/24 02:34:20;;;;;;;8.20;4.43;;;;;;;;;;5075370;28;20025;-69
2023/06/24 02:36:45;;;;;;;16.08;5.43;;;;;;;;;;5075119;28;20024;-69
2023/06/24 02:39:11;;;;;;;10.85;5.72;;;;;;;;;;5074957;28;20036;-69
2023/06/24 02:41:36;;;;;;;7.57;4.70;;;;;;;;;;5057337;28;20032;-69
2023/06/24 02:44:01;;;;;;;8.77;4.55;;;;;;;;;;5085326;28;20016;-69
2023/06/24 02:46:29;;;;;;;7.45;4.78;;;;;;;;;;5060275;28;20496;-69
2023/06/24 02:48:55;;;;;;;10.57;5.43;;;;;;;;;;5077002;28;20028;-69
2023/06/24 02:51:21;;;;;;;11.13;5.18;;;;;;;;;;5095101;28;20035;-69
2023/06/24 02:53:47;;;;;;;11.25;5.05;;;;;;;;;;5075833;28;20044;-69
2023/06/24 02:56:13;;;;;;;8.27;4.38;;;;;;;;;;5077161;28;20024;-69
2023/06/24 02:58:39;;;;;;;8.68;4.47;;;;;;;;;;5076880;28;20465;-69
2023/06/24 03:01:06;;;;;;;9.50;4.63;;;;;;;;;;5077376;28;20095;-69
2023/06/24 03:03:32;;;;;;;8.23;4.50;;;;;;;;;;5077392;28;20491;-69
2023/06/24 03:05:57;;;;;;;8.82;4.78;;;;;;;;;;5076959;28;20032;-70
2023/06/24 03:08:24;;;;;;;8.82;4.30;;;;;;;;;;5076779;28;20044;-69
2023/06/24 03:10:51;;;;;;;9.35;5.30;;;;;;;;;;5094396;28;20032;-69
2023/06/24 03:13:16;;;;;;;10.80;5.15;;;;;;;;;;5094311;28;20077;-69
2023/06/24 03:15:41;;;;;;;9.77;5.38;;;;;;;;;;5094573;28;20435;-69
2023/06/24 03:18:07;;;;;;;10.02;4.78;;;;;;;;;;5094502;28;20024;-69
2023/06/24 03:20:38;;;;;;;10.48;4.85;;;;;;;;;;5094709;28;20059;-69
2023/06/24 03:23:03;;;;;;;9.18;5.03;;;;;;;;;;5077315;28;20099;-69
2023/06/24 03:25:28;;;;;;;9.30;4.50;;;;;;;;;;5094735;28;20016;-69
2023/06/24 03:27:54;;;;;;;8.55;4.53;;;;;;;;;;5076173;28;20027;-69
2023/06/24 03:30:19;;;;;;;9.10;4.45;;;;;;;;;;5075983;28;20028;-69
2023/06/24 03:32:46;;;;;;;8.07;4.95;;;;;;;;;;5075695;28;20028;-69
2023/06/24 03:35:12;;;;;;;7.88;4.50;;;;;;;;;;5093987;28;20089;-69
2023/06/24 03:37:37;;;;;;;9.07;4.90;;;;;;;;;;5094221;28;20114;-69
2023/06/24 03:40:03;;;;;;;9.57;4.95;;;;;;;;;;5094021;28;20016;-69
2023/06/24 03:42:29;;;;;;;12.32;6.05;;;;;;;;;;5094036;28;20024;-69
2023/06/24 03:44:54;;;;;;;10.93;5.43;;;;;;;;;;5093792;28;20035;-69
2023/06/24 03:47:20;;;;;;;11.38;5.38;;;;;;;;;;5093909;28;20119;-69
2023/06/24 03:49:45;;;;;;;10.18;5.63;;;;;;;;;;5093943;28;20023;-69
2023/06/24 03:52:10;;;;;;;8.65;4.78;;;;;;;;;;5093890;28;20524;-69
2023/06/24 03:54:36;;;;;;;9.38;5.65;;;;;;;;;;5094136;28;20024;-69
2023/06/24 03:57:01;;;;;;;10.68;5.80;;;;;;;;;;5093827;28;20378;-69
2023/06/24 03:59:26;;;;;;;10.32;4.82;;;;;;;;;;5075350;28;20069;-69
2023/06/24 04:01:52;;;;;;;12.25;5.28;;;;;;;;;;5093498;28;20024;-69
2023/06/24 04:04:17;;;;;;;10.43;5.95;;;;;;;;;;5085450;28;20020;-69
2023/06/24 04:06:42;;;;;;;12.18;6.30;;;;;;;;;;5087085;28;20055;-69
2023/06/24 04:09:09;;;;;;;11.18;5.43;;;;;;;;;;5082754;28;20021;-69
2023/06/24 04:11:35;;;;;;;12.38;6.50;;;;;;;;;;5073224;28;20044;-69
2023/06/24 04:14:00;;;;;;;11.88;6.60;;;;;;;;;;5073041;28;20024;-69
2023/06/24 04:16:25;;;;;;;10.25;5.20;;;;;;;;;;5073554;28;20037;-69
2023/06/24 04:18:51;;;;;;;9.80;5.32;;;;;;;;;;5073212;28;20017;-70
2023/06/24 04:21:16;;;;;;;8.00;5.18;;;;;;;;;;5073420;28;20474;-69
2023/06/24 04:23:41;;;;;;;14.55;6.53;;;;;;;;;;5073167;28;20092;-69
2023/06/24 04:26:06;;;;;;;10.80;6.38;;;;;;;;;;5073448;28;20044;-69
2023/06/24 04:28:32;;;;;;;14.25;6.68;;;;;;;;;;5072824;28;20482;-69
2023/06/24 04:30:57;;;;;;;13.38;7.07;;;;;;;;;;5073441;28;20116;-69
2023/06/24 04:33:24;;;;;;;9.60;6.13;;;;;;;;;;5072427;28;20401;-69
2023/06/24 04:35:51;;;;;;;12.20;6.20;;;;;;;;;;5073048;28;20107;-69
2023/06/24 04:38:18;;;;;;;11.88;6.57;;;;;;;;;;5072994;28;20394;-69
2023/06/24 04:40:43;;;;;;;14.07;6.25;;;;;;;;;;5055019;28;20086;-69
2023/06/24 04:43:08;;;;;;;11.82;5.82;;;;;;;;;;5072961;28;20526;-69
2023/06/24 04:45:34;;;;;;;9.52;5.72;;;;;;;;;;5072943;28;20466;-69
2023/06/24 04:47:59;;;;;;;11.60;6.32;;;;;;;;;;5072912;28;20031;-69
2023/06/24 04:50:24;;;;;;;14.15;7.07;;;;;;;;;;5072867;28;20024;-69
2023/06/24 04:52:54;;;;;;;11.30;6.00;;;;;;;;;;5073218;28;20031;-69
2023/06/24 04:55:23;;;;;;;17.85;7.43;;;;;;;;;;5071739;28;20020;-69
2023/06/24 04:57:48;;;;;;;11.48;6.78;;;;;;;;;;5072893;28;20024;-69
2023/06/24 05:00:14;;;;;;;12.02;6.70;;;;;;;;;;5071585;28;20393;-74
2023/06/24 05:02:39;;;;;;;9.52;5.88;;;;;;;;;;5072761;28;20035;-69
2023/06/24 05:05:04;;;;;;;13.88;7.57;;;;;;;;;;5072769;28;20021;-69
2023/06/24 05:07:29;;;;;;;12.05;6.60;;;;;;;;;;5072694;28;20461;-69
2023/06/24 05:09:55;;;;;;;14.95;7.45;;;;;;;;;;5072723;28;20367;-69
2023/06/24 05:12:20;;;;;;;12.45;5.93;;;;;;;;;;5072795;28;20115;-69
2023/06/24 05:14:50;;;;;;;11.20;5.63;;;;;;;;;;5072717;28;20027;-69
2023/06/24 05:17:15;;;;;;;13.25;6.82;;;;;;;;;;5073797;28;20031;-69
2023/06/24 05:19:40;;;;;;;11.80;7.45;;;;;;;;;;5076731;28;20108;-69
2023/06/24 05:22:06;;;;;;;13.15;6.65;;;;;;;;;;5076449;28;20527;-69
2023/06/24 05:24:31;;;;;;;15.35;7.15;;;;;;;;;;5075271;28;20027;-69
2023/06/24 05:27:03;;;;;;;10.25;6.22;;;;;;;;;;5076361;28;20028;-70
2023/06/24 05:29:28;;;;;;;14.30;7.88;;;;;;;;;;5075069;28;20101;-69
2023/06/24 05:31:53;;;;;;;11.90;6.40;;;;;;;;;;5076393;28;20052;-69
2023/06/24 05:34:18;;;;;;;15.32;6.57;;;;;;;;;;5076270;28;20484;-69
2023/06/24 05:36:44;;;;;;;11.45;6.97;;;;;;;;;;5076379;28;20021;-69
2023/06/24 05:39:11;;;;;;;12.43;6.97;;;;;;;;;;5076758;28;20017;-69
2023/06/24 05:41:36;;;;;;;15.73;6.65;;;;;;;;;;5076269;28;20031;-69
2023/06/24 05:44:07;;;;;;;11.23;7.05;;;;;;;;;;5076339;28;20125;-70
2023/06/24 05:46:32;;;;;;;11.43;6.53;;;;;;;;;;5058143;28;20481;-70
2023/06/24 05:48:58;;;;;;;15.25;6.95;;;;;;;;;;5075851;28;20108;-70
2023/06/24 05:51:23;;;;;;;15.13;8.40;;;;;;;;;;5075961;28;20039;-70
2023/06/24 05:53:48;;;;;;;19.60;7.55;;;;;;;;;;5075943;28;20029;-70
2023/06/24 05:56:14;;;;;;;13.48;7.05;;;;;;;;;;5075851;28;20039;-69
2023/06/24 05:58:40;;;;;;;15.43;7.82;;;;;;;;;;5076059;28;20378;-70
2023/06/24 06:01:06;;;;;;;13.70;7.18;;;;;;;;;;5075810;28;20032;-70
2023/06/24 06:03:31;;;;;;;10.18;6.55;;;;;;;;;;5075718;28;20082;-71
2023/06/24 06:05:56;;;;;;;11.32;6.05;;;;;;;;;;5075747;28;20106;-70
2023/06/24 06:08:22;;;;;;;10.20;5.70;;;;;;;;;;5075496;28;20020;-70
2023/06/24 06:10:47;;;;;;;13.77;6.85;;;;;;;;;;5075911;28;20032;-70
2023/06/24 06:13:12;;;;;;;10.75;5.40;;;;;;;;;;5075491;28;20425;-69
2023/06/24 06:15:38;;;;;;;10.43;6.15;;;;;;;;;;5075527;28;20055;-69
2023/06/24 06:18:03;;;;;;;7.53;5.45;;;;;;;;;;5075816;28;20021;-69
2023/06/24 06:20:28;;;;;;;13.32;5.70;;;;;;;;;;5075380;28;20017;-69
2023/06/24 06:22:53;;;;;;;10.57;4.75;;;;;;;;;;5075386;28;20103;-69
2023/06/24 06:25:19;;;;;;;11.07;6.05;;;;;;;;;;5075365;28;20390;-69
2023/06/24 06:27:44;;;;;;;10.02;5.57;;;;;;;;;;5075330;28;20035;-69
2023/06/24 06:30:10;;;;;;;11.32;4.88;;;;;;;;;;5075148;28;20070;-69
2023/06/24 06:32:35;;;;;;;6.32;4.03;;;;;;;;;;5073947;28;20037;-69
2023/06/24 06:35:00;;;;;;;5.63;3.83;;;;;;;;;;5075243;28;20516;-69
2023/06/24 06:37:26;;;;;;;6.45;3.22;;;;;;;;;;5075652;28;20021;-69
2023/06/24 06:39:51;;;;;;;8.57;4.57;;;;;;;;;;5075055;28;20027;-69
2023/06/24 06:42:16;;;;;;;6.75;3.40;;;;;;;;;;5057111;28;20078;-69
2023/06/24 06:44:42;;;;;;;6.60;3.55;;;;;;;;;;5075012;28;20027;-69
2023/06/24 06:47:07;;;;;;;5.55;3.20;;;;;;;;;;5057049;28;20040;-69
2023/06/24 06:49:32;;;;;;;4.75;3.15;;;;;;;;;;5074751;28;20020;-69
2023/06/24 06:51:58;;;;;;;5.10;2.60;;;;;;;;;;5074886;28;20139;-69
2023/06/24 06:54:23;;;;;;;3.97;3.03;;;;;;;;;;5074915;28;20503;-69
2023/06/24 06:56:48;;;;;;;2.65;2.22;;;;;;;;;;5074803;28;20024;-69
2023/06/24 06:59:13;;;;;;;5.25;2.35;;;;;;;;;;5074917;28;20035;-69
2023/06/24 07:01:39;;;;;;;2.95;2.42;;;;;;;;;;5074947;28;20062;-69
2023/06/24 07:04:04;;;;;;;4.28;2.53;;;;;;;;;;5074551;28;20027;-69
2023/06/24 07:06:32;;;;;;;5.32;2.35;;;;;;;;;;5074561;28;20065;-69
2023/06/24 07:08:57;;;;;;;3.90;2.60;;;;;;;;;;5056367;28;20020;-69
2023/06/24 07:11:22;;;;;;;6.38;3.53;;;;;;;;;;5074462;28;20040;-69
2023/06/24 07:13:50;;;;;;;3.72;2.55;;;;;;;;;;5074382;28;20051;-69
2023/06/24 07:16:15;;;;;;;4.80;2.72;;;;;;;;;;5074756;28;20099;-69
2023/06/24 07:18:41;;;;;;;3.75;2.53;;;;;;;;;;5074379;28;20523;-69
2023/06/24 07:21:06;;;;;;;5.60;2.40;;;;;;;;;;5074237;28;20035;-69
2023/06/24 07:23:31;;;;;;;3.80;2.40;;;;;;;;;;5074218;28;20017;-69
2023/06/24 07:25:57;;;;;;;3.05;2.10;;;;;;;;;;5074166;28;20020;-69
2023/06/24 07:28:22;;;;;;;3.45;2.38;;;;;;;;;;5062027;28;20028;-69
2023/06/24 07:30:48;;;;;;;4.45;3.05;;;;;;;;;;5085282;28;20390;-69
2023/06/24 07:33:13;;;;;;;5.60;2.53;;;;;;;;;;5074022;28;20055;-69
2023/06/24 07:35:38;;;;;;;6.15;3.08;;;;;;;;;;5074524;28;20033;-69
2023/06/24 07:38:04;;;;;;;3.30;2.30;;;;;;;;;;5073950;28;20020;-69
2023/06/24 07:40:29;;;;;;;4.10;2.50;;;;;;;;;;5073131;28;20020;-69
2023/06/24 07:42:54;;;;;;;3.45;2.33;;;;;;;;;;5078501;28;20409;-69
2023/06/24 07:45:20;;;;;;;7.30;4.28;;;;;;;;;;5093747;28;20020;-69
2023/06/24 07:47:45;;;;;;;3.83;2.60;;;;;;;;;;5091316;28;20030;-70
2023/06/24 07:50:10;;;;;;;3.92;2.92;;;;;;;;;;5073621;28;20032;-70
2023/06/24 07:52:37;;;;;;;6.45;2.72;;;;;;;;;;5055833;28;20028;-71
2023/06/24 07:55:03;;;;;;;5.60;2.70;;;;;;;;;;5073342;28;20025;-70
2023/06/24 07:57:28;;;;;;;7.93;2.90;;;;;;;;;;5073340;28;20024;-70
2023/06/24 07:59:54;;;;;;;3.85;2.63;;;;;;;;;;5075999;28;20020;-70
2023/06/24 08:02:19;;;;;;;7.60;2.90;;;;;;;;;;5073405;28;20028;-70
2023/06/24 08:04:45;;;;;;;4.75;2.90;;;;;;;;;;5077496;28;20035;-69
2023/06/24 08:07:10;;;;;;;5.70;2.72;;;;;;;;;;5093584;28;20035;-70
2023/06/24 08:09:35;;;;;;;6.10;3.03;;;;;;;;;;5090938;28;20027;-69
2023/06/24 08:12:01;;;;;;;5.60;3.08;;;;;;;;;;5085710;28;20081;-68
2023/06/24 08:14:26;;;;;;;5.30;3.58;;;;;;;;;;5078428;28;20432;-69
2023/06/24 08:16:51;;;;;;;3.97;3.15;;;;;;;;;;5090090;28;20020;-70
2023/06/24 08:19:16;;;;;;;5.10;3.00;;;;;;;;;;5093158;28;20489;-70
2023/06/24 08:21:42;;;;;;;4.35;3.10;;;;;;;;;;5093225;28;20031;-69
2023/06/24 08:24:07;;;;;;;4.85;3.17;;;;;;;;;;5093321;28;20020;-70
2023/06/24 08:26:33;;;;;;;4.07;2.92;;;;;;;;;;5093070;28;20020;-70
2023/06/24 08:28:59;;;;;;;5.57;2.88;;;;;;;;;;5093012;28;20024;-70
2023/06/24 08:31:25;;;;;;;4.72;3.88;;;;;;;;;;5092618;28;20099;-71
2023/06/24 08:33:56;;;;;;;5.15;3.08;;;;;;;;;;5075185;28;20033;-70
2023/06/24 08:36:23;;;;;;;4.38;3.60;;;;;;;;;;5086938;28;20042;-70
2023/06/24 08:38:48;;;;;;;4.60;3.22;;;;;;;;;;5091003;28;20100;-70
2023/06/24 08:41:14;;;;;;;4.35;3.08;;;;;;;;;;5073280;28;20063;-70
2023/06/24 08:43:40;;;;;;;3.75;3.08;;;;;;;;;;5055105;28;20445;-70
2023/06/24 08:46:05;;;;;;;5.47;3.47;;;;;;;;;;5073357;28;20155;-70
2023/06/24 08:48:30;;;;;;;5.00;3.33;;;;;;;;;;5087796;28;20508;-70
2023/06/24 08:50:56;;;;;;;5.30;3.88;;;;;;;;;;5095370;28;20408;-70
2023/06/24 08:53:22;;;;;;;6.88;3.70;;;;;;;;;;5097269;28;20027;-70
2023/06/24 08:55:49;;;;;;;4.95;3.30;;;;;;;;;;5077133;28;20500;-71
2023/06/24 08:58:15;;;;;;;6.50;3.58;;;;;;;;;;5069538;28;20029;-71
2023/06/24 09:00:41;;;;;;;6.40;4.07;;;;;;;;;;5076708;28;20040;-70
2023/06/24 09:03:06;;;;;;;7.43;3.45;;;;;;;;;;5077054;28;20036;-69
2023/06/24 09:05:32;;;;;;;5.65;3.65;;;;;;;;;;5068646;28;20028;-69
2023/06/24 09:07:57;;;;;;;8.05;3.78;;;;;;;;;;5097070;28;20474;-69
2023/06/24 09:10:31;;;;;;;6.07;3.60;;;;;;;;;;5093224;28;20024;-69
2023/06/24 09:12:56;;;;;;;5.28;4.15;;;;;;;;;;5087703;28;20496;-70
2023/06/24 09:15:22;;;;;;;5.47;3.53;;;;;;;;;;5081757;28;20121;-69
2023/06/24 09:17:47;;;;;;;4.70;3.15;;;;;;;;;;5076422;28;20028;-70
2023/06/24 09:20:13;;;;;;;5.63;3.60;;;;;;;;;;5095696;28;20056;-70
2023/06/24 09:22:42;;;;;;;6.03;3.55;;;;;;;;;;5096353;28;20100;-70
2023/06/24 09:25:07;;;;;;;5.80;3.75;;;;;;;;;;5087273;28;20028;-69
2023/06/24 09:27:33;;;;;;;4.72;3.33;;;;;;;;;;5066248;28;20103;-70
2023/06/24 09:29:58;;;;;;;5.03;3.35;;;;;;;;;;5077801;28;20030;-70
2023/06/24 09:32:29;;;;;;;6.07;3.90;;;;;;;;;;5090010;28;20028;-70
2023/06/24 09:34:54;;;;;;;5.18;3.70;;;;;;;;;;5058619;28;20020;-69
2023/06/24 09:37:23;;;;;;;4.85;3.65;;;;;;;;;;5076176;28;20039;-70
2023/06/24 09:39:49;;;;;;;6.35;4.05;;;;;;;;;;5058026;28;20017;-70
2023/06/24 09:42:14;;;;;;;5.50;3.78;;;;;;;;;;5076074;28;20436;-70
2023/06/24 09:44:40;;;;;;;5.43;3.40;;;;;;;;;;5091696;28;20059;-69
2023/06/24 09:47:05;;;;;;;6.15;3.63;;;;;;;;;;5096358;28;20016;-70
2023/06/24 09:49:31;;;;;;;6.45;3.78;;;;;;;;;;5089862;28;20059;-70
2023/06/24 09:51:57;;;;;;;6.00;3.55;;;;;;;;;;5075910;28;20027;-69
2023/06/24 09:54:25;;;;;;;6.88;3.78;;;;;;;;;;5058042;28;20074;-70
2023/06/24 09:56:53;;;;;;;5.18;3.40;;;;;;;;;;5076358;28;20485;-69
2023/06/24 09:59:19;;;;;;;7.22;3.30;;;;;;;;;;5076096;28;20108;-69
2023/06/24 10:01:46;;;;;;;5.88;3.78;;;;;;;;;;5077350;28;20095;-69
2023/06/24 10:04:17;;;;;;;4.78;3.50;;;;;;;;;;5095878;28;20074;-69
2023/06/24 10:06:42;;;;;;;4.75;3.20;;;;;;;;;;5078057;28;20016;-69
2023/06/24 10:09:08;;;;;;;6.75;3.70;;;;;;;;;;5075807;28;20398;-69
2023/06/24 10:11:34;;;;;;;6.05;3.90;;;;;;;;;;5095646;28;20473;-70
2023/06/24 10:13:59;;;;;;;7.90;3.92;;;;;;;;;;5095875;28;20028;-70
2023/06/24 10:16:24;;;;;;;5.20;3.53;;;;;;;;;;5095718;28;20078;-69
2023/06/24 10:18:50;;;;;;;5.63;3.70;;;;;;;;;;5095575;28;20020;-69
2023/06/24 10:21:15;;;;;;;5.68;3.47;;;;;;;;;;5095744;28;20020;-70
2023/06/24 10:23:49;;;;;;;4.90;3.35;;;;;;;;;;5095627;28;20024;-70
2023/06/24 10:26:28;;;;;;;6.38;3.47;;;;;;;;;;5078848;28;20086;-69
2023/06/24 10:29:05;;;;;;;6.82;3.90;;;;;;;;;;5057950;28;20095;-70
2023/06/24 10:31:39;;;;;;;4.78;3.40;;;;;;;;;;5074914;28;20029;-70
2023/06/24 10:34:24;;;;;;;6.95;3.70;;;;;;;;;;5083310;28;20431;-69
2023/06/24 10:37:08;;;;;;;5.85;3.75;;;;;;;;;;5095383;28;20162;-69
2023/06/24 10:39:56;;;;;;;7.05;3.70;;;;;;;;;;5077192;28;20026;-69
2023/06/24 10:42:31;;;;;;;5.72;3.67;;;;;;;;;;5091806;28;20081;-69
2023/06/24 10:45:08;;;;;;;6.57;3.60;;;;;;;;;;5074831;28;20482;-69
2023/06/24 10:47:33;;;;;;;8.75;4.20;;;;;;;;;;5074744;28;20075;-69
2023/06/24 10:49:59;;;;;;;5.47;4.30;;;;;;;;;;5074760;28;20028;-68
2023/06/24 10:52:25;;;;;;;5.25;3.45;;;;;;;;;;5074883;28;20024;-68
2023/06/24 10:54:51;;;;;;;6.65;3.60;;;;;;;;;;5075650;28;20024;-68
2023/06/24 10:57:22;;;;;;;6.63;3.55;;;;;;;;;;5057208;28;20020;-68
2023/06/24 10:59:49;;;;;;;6.38;3.35;;;;;;;;;;5074626;28;20027;-68
2023/06/24 11:02:15;;;;;;;6.45;4.03;;;;;;;;;;5074596;28;20146;-68
2023/06/24 11:04:55;;;;;;;6.55;3.33;;;;;;;;;;5056724;28;20020;-68
2023/06/24 11:07:21;;;;;;;5.45;3.42;;;;;;;;;;5074714;28;20024;-68
2023/06/24 11:09:51;;;;;;;5.50;3.00;;;;;;;;;;5076583;28;20024;-67
2023/06/24 11:12:16;;;;;;;5.55;2.85;;;;;;;;;;5059096;28;20052;-68
2023/06/24 11:14:42;;;;;;;6.07;3.20;;;;;;;;;;5079549;28;20473;-67
2023/06/24 11:17:07;;;;;;;4.85;2.95;;;;;;;;;;5094580;28;20073;-67
2023/06/24 11:19:33;;;;;;;4.47;2.70;;;;;;;;;;5091219;28;20016;-68
2023/06/24 11:22:02;;;;;;;3.90;2.33;;;;;;;;;;5094727;28;20577;-67
2023/06/24 11:24:28;;;;;;;5.07;2.58;;;;;;;;;;5076121;28;20028;-68
2023/06/24 11:26:54;;;;;;;5.88;3.00;;;;;;;;;;5092456;28;20084;-68
2023/06/24 11:29:19;;;;;;;6.45;3.15;;;;;;;;;;5075950;28;20032;-68
2023/06/24 11:31:45;;;;;;;5.50;3.00;;;;;;;;;;5083459;28;20039;-68
2023/06/24 11:34:10;;;;;;;6.00;3.13;;;;;;;;;;5056207;28;20025;-68
2023/06/24 11:36:36;;;;;;;5.95;3.03;;;;;;;;;;5074233;28;20081;-68
2023/06/24 11:39:01;;;;;;;6.97;2.92;;;;;;;;;;5073619;28;20023;-68
2023/06/24 11:41:27;;;;;;;4.40;3.20;;;;;;;;;;5073865;28;20025;-67
2023/06/24 11:43:53;;;;;;;6.93;4.10;;;;;;;;;;5073829;28;20028;-68
2023/06/24 11:46:27;;;;;;;6.13;3.30;;;;;;;;;;5076063;28;20035;-68
2023/06/24 11:48:53;;;;;;;6.20;3.45;;;;;;;;;;5073874;28;20034;-68
2023/06/24 11:51:19;;;;;;;11.60;3.55;;;;;;;;;;5055974;28;20020;-68
2023/06/24 11:53:47;;;;;;;5.15;3.42;;;;;;;;;;5075951;28;20020;-68
2023/06/24 11:56:13;;;;;;;4.65;3.50;;;;;;;;;;5093796;28;20031;-68
2023/06/24 11:58:39;;;;;;;4.38;3.20;;;;;;;;;;5093579;28;20072;-68
2023/06/24 12:01:06;;;;;;;6.85;3.53;;;;;;;;;;5094291;28;20103;-68
2023/06/24 12:03:33;;;;;;;4.45;3.30;;;;;;;;;;5073515;28;20044;-68
2023/06/24 12:05:59;;;;;;;7.03;4.40;;;;;;;;;;5093748;28;20397;-68
2023/06/24 12:08:24;;;;;;;5.15;3.17;;;;;;;;;;5058428;28;20027;-68
2023/06/24 12:10:49;;;;;;;6.95;3.95;;;;;;;;;;5093885;28;20031;-68
2023/06/24 12:13:15;;;;;;;8.38;3.92;;;;;;;;;;5075857;28;20031;-68
2023/06/24 12:15:40;;;;;;;5.60;3.83;;;;;;;;;;5073166;28;20025;-68
2023/06/24 12:18:06;;;;;;;5.43;3.42;;;;;;;;;;5072433;28;20023;-67
2023/06/24 12:20:32;;;;;;;6.80;4.05;;;;;;;;;;5072904;28;20401;-68
2023/06/24 12:22:57;;;;;;;4.85;3.40;;;;;;;;;;5087827;28;20031;-67
2023/06/24 12:25:22;;;;;;;6.00;3.97;;;;;;;;;;5092913;28;20024;-68
2023/06/24 12:27:48;;;;;;;7.97;3.47;;;;;;;;;;5086209;28;20030;-67
2023/06/24 12:30:13;;;;;;;8.05;3.50;;;;;;;;;;5086737;28;20032;-68
2023/06/24 12:32:39;;;;;;;5.68;4.32;;;;;;;;;;5093469;28;20393;-68
2023/06/24 12:35:05;;;;;;;7.95;4.10;;;;;;;;;;5075170;28;20016;-68
2023/06/24 12:37:34;;;;;;;5.88;4.18;;;;;;;;;;5074114;28;20056;-67
2023/06/24 12:39:59;;;;;;;6.22;3.58;;;;;;;;;;5093003;28;20465;-67
2023/06/24 12:42:25;;;;;;;6.28;4.13;;;;;;;;;;5085646;28;20040;-68
2023/06/24 12:44:51;;;;;;;5.93;3.92;;;;;;;;;;5073047;28;20402;-68
2023/06/24 12:47:16;;;;;;;8.32;3.90;;;;;;;;;;5072696;28;20021;-68
2023/06/24 12:49:41;;;;;;;5.70;4.40;;;;;;;;;;5072600;28;20393;-67
2023/06/24 12:52:07;;;;;;;7.70;4.13;;;;;;;;;;5075329;28;20055;-67
2023/06/24 12:54:32;;;;;;;7.03;4.20;;;;;;;;;;5073142;28;20024;-67
2023/06/24 12:56:57;;;;;;;6.78;4.10;;;;;;;;;;5072413;28;20479;-68
2023/06/24 12:59:23;;;;;;;5.43;4.13;;;;;;;;;;5072594;28;20025;-68
2023/06/24 13:01:48;;;;;;;6.35;4.53;;;;;;;;;;5072158;28;20033;-67
2023/06/24 13:04:13;;;;;;;6.13;4.63;;;;;;;;;;5072643;28;20027;-67
2023/06/24 13:06:39;;;;;;;6.65;4.57;;;;;;;;;;5072824;28;20028;-69
2023/06/24 13:09:04;;;;;;;7.50;4.75;;;;;;;;;;5057028;28;20024;-67
2023/06/24 13:11:30;;;;;;;7.15;4.18;;;;;;;;;;5055696;28;20482;-68
2023/06/24 13:13:55;;;;;;;8.15;4.45;;;;;;;;;;5075376;28;20069;-67
2023/06/24 13:16:20;;;;;;;7.03;5.00;;;;;;;;;;5072169;28;20025;-67
2023/06/24 13:18:46;;;;;;;8.45;5.28;;;;;;;;;;5072008;28;20394;-68
2023/06/24 13:21:11;;;;;;;6.47;4.30;;;;;;;;;;5089774;28;20035;-68
2023/06/24 13:23:38;;;;;;;8.15;4.80;;;;;;;;;;5092547;28;20097;-68
2023/06/24 13:26:03;;;;;;;7.60;4.50;;;;;;;;;;5062044;28;20554;-68
2023/06/24 13:28:29;;;;;;;8.77;5.15;;;;;;;;;;5088819;28;20036;-68
2023/06/24 13:30:55;;;;;;;8.35;5.80;;;;;;;;;;5112443;23;20040;-76
2023/06/24 13:33:22;;;;;;;11.98;5.97;;;;;;;;;;5093264;28;20020;-76
2023/06/24 13:35:49;;;;;;;11.68;7.22;;;;;;;;;;5072477;28;20458;-76
2023/06/24 13:38:14;;;;;;;11.73;5.68;;;;;;;;;;5040362;28;20055;-76
2023/06/24 13:40:40;;;;;;;7.60;4.65;;;;;;;;;;5078493;28;20379;-75
2023/06/24 13:43:05;;;;;;;9.13;6.43;;;;;;;;;;5096250;28;20131;-75
2023/06/24 13:45:30;;;;;;;10.38;5.25;;;;;;;;;;5080816;28;20035;-75
2023/06/24 13:47:56;;;;;;;8.40;5.40;;;;;;;;;;5074462;28;20028;-75
2023/06/24 13:50:21;;;;;;;11.85;7.53;;;;;;;;;;5078387;28;20111;-75
2023/06/24 13:52:46;;;;;;;11.13;6.35;;;;;;;;;;5075961;28;20032;-74
2023/06/24 13:55:12;;;;;;;7.35;4.57;;;;;;;;;;5075604;28;20028;-76
2023/06/24 13:57:37;;;;;;;6.82;4.25;;;;;;;;;;5088806;28;20032;-75
2023/06/24 14:00:03;;;;;;;10.65;4.97;;;;;;;;;;5074036;28;20469;-74
2023/06/24 14:02:28;;;;;;;10.50;5.40;;;;;;;;;;5074336;28;20024;-75
2023/06/24 14:04:53;;;;;;;7.80;4.38;;;;;;;;;;5094112;28;20020;-74
2023/06/24 14:07:19;;;;;;;7.05;4.63;;;;;;;;;;5095361;28;20051;-75
2023/06/24 14:09:44;;;;;;;7.03;4.70;;;;;;;;;;5066743;28;20056;-75
2023/06/24 14:12:10;;;;;;;7.85;4.63;;;;;;;;;;5090807;28;20028;-75
2023/06/24 14:14:38;;;;;;;8.10;4.97;;;;;;;;;;5094388;28;20020;-75
2023/06/24 14:17:08;;;;;;;8.18;4.40;;;;;;;;;;5091492;28;20032;-74
2023/06/24 14:19:34;;;;;;;8.25;4.95;;;;;;;;;;5094344;28;20033;-74
2023/06/24 14:21:59;;;;;;;7.65;4.28;;;;;;;;;;5092521;28;20032;-74
2023/06/24 14:24:25;;;;;;;7.53;6.07;;;;;;;;;;5094153;28;20028;-74
2023/06/24 14:26:50;;;;;;;7.05;4.88;;;;;;;;;;5092486;28;20020;-75
2023/06/24 14:29:16;;;;;;;6.45;4.53;;;;;;;;;;5073971;28;20559;-75
2023/06/24 14:31:41;;;;;;;7.47;5.00;;;;;;;;;;5090306;28;20143;-74
2023/06/24 14:34:06;;;;;;;9.13;4.55;;;;;;;;;;5083895;28;20030;-76